createdAt,value
2023-03-17T00:01:56.835Z,8.09
2023-03-17T00:04:25.628Z,8.13
2023-03-17T00:06:54.454Z,8.08
2023-03-17T00:09:22.452Z,8.00
2023-03-17T00:11:50.845Z,7.97
2023-03-17T00:14:19.774Z,7.83
2023-03-17T00:16:52.815Z,8.01
2023-03-17T00:19:30.024Z,8.01
2023-03-17T00:21:58.986Z,7.99
2023-03-17T00:24:27.400Z,8.00
2023-03-17T00:26:55.138Z,7.98
2023-03-17T00:29:23.313Z,7.87
2023-03-17T00:31:51.202Z,7.97
2023-03-17T00:34:23.390Z,7.95
2023-03-17T00:36:51.679Z,7.87
2023-03-17T00:39:19.724Z,7.80
2023-03-17T00:41:50.300Z,7.74
2023-03-17T00:44:18.486Z,7.64
2023-03-17T00:46:46.662Z,7.69
2023-03-17T00:49:20.166Z,7.88
2023-03-17T00:51:48.280Z,7.84
2023-03-17T00:54:16.476Z,7.82
2023-03-17T00:56:44.986Z,7.83
2023-03-17T00:59:27.479Z,7.81
2023-03-17T01:01:55.450Z,7.95
2023-03-17T01:04:23.974Z,7.83
2023-03-17T01:06:52.270Z,7.81
2023-03-17T01:09:24.129Z,7.72
2023-03-17T01:11:51.750Z,7.86
2023-03-17T01:14:19.022Z,7.72
2023-03-17T01:16:47.738Z,7.71
2023-03-17T01:19:15.186Z,7.72
2023-03-17T01:21:42.912Z,7.64
2023-03-17T01:24:11.695Z,7.57
2023-03-17T01:26:40.505Z,7.65
2023-03-17T01:29:07.959Z,7.65
2023-03-17T01:31:36.229Z,7.67
2023-03-17T01:34:06.190Z,7.61
2023-03-17T01:36:34.350Z,7.49
2023-03-17T01:39:01.838Z,7.46
2023-03-17T01:41:33.738Z,7.29
2023-03-17T01:44:01.201Z,7.32
2023-03-17T01:46:31.136Z,7.21
2023-03-17T01:49:10.368Z,7.20
2023-03-17T01:51:52.570Z,7.10
2023-03-17T01:54:39.797Z,6.98
2023-03-17T01:57:13.609Z,7.27
2023-03-17T01:59:49.506Z,7.17
2023-03-17T02:02:28.631Z,7.35
2023-03-17T02:04:56.791Z,7.30
2023-03-17T02:07:26.597Z,7.36
2023-03-17T02:09:56.088Z,7.11
2023-03-17T02:12:27.822Z,7.09
2023-03-17T02:14:55.176Z,7.06
2023-03-17T02:17:26.123Z,7.20
2023-03-17T02:19:54.067Z,7.21
2023-03-17T02:22:24.022Z,7.25
2023-03-17T02:24:55.756Z,7.24
2023-03-17T02:27:31.124Z,7.13
2023-03-17T02:29:59.837Z,6.99
2023-03-17T02:32:27.728Z,6.98
2023-03-17T02:34:56.071Z,6.93
2023-03-17T02:37:24.079Z,6.92
2023-03-17T02:39:52.613Z,6.79
2023-03-17T02:42:20.043Z,6.76
2023-03-17T02:44:47.402Z,6.77
2023-03-17T02:47:15.246Z,6.75
2023-03-17T02:49:43.478Z,6.94
2023-03-17T02:52:10.958Z,6.96
2023-03-17T02:54:38.711Z,6.86
2023-03-17T02:57:07.613Z,6.85
2023-03-17T02:59:35.852Z,6.79
2023-03-17T03:02:03.180Z,6.78
2023-03-17T03:04:30.625Z,6.87
2023-03-17T03:06:57.967Z,6.83
2023-03-17T03:09:25.863Z,6.82
2023-03-17T03:11:53.239Z,6.68
2023-03-17T03:14:20.788Z,6.65
2023-03-17T03:16:48.367Z,6.57
2023-03-17T03:19:16.452Z,6.61
2023-03-17T03:21:44.133Z,6.62
2023-03-17T03:24:11.606Z,6.58
2023-03-17T03:26:38.924Z,6.54
2023-03-17T03:29:06.209Z,6.58
2023-03-17T03:31:33.646Z,6.59
2023-03-17T03:34:00.992Z,6.59
2023-03-17T03:36:28.591Z,6.65
2023-03-17T03:38:56.023Z,6.69
2023-03-17T03:41:23.340Z,6.57
2023-03-17T03:43:50.823Z,6.75
2023-03-17T03:46:18.210Z,6.58
2023-03-17T03:48:45.589Z,6.47
2023-03-17T03:51:12.923Z,6.58
2023-03-17T03:53:40.381Z,6.55
2023-03-17T03:56:08.079Z,6.49
2023-03-17T03:58:35.694Z,6.35
2023-03-17T04:01:07.508Z,6.28
2023-03-17T04:03:35.273Z,6.31
2023-03-17T04:06:03.504Z,6.05
2023-03-17T04:08:31.841Z,6.18
2023-03-17T04:10:59.208Z,6.26
2023-03-17T04:13:27.094Z,6.26
2023-03-17T04:15:54.574Z,6.32
2023-03-17T04:18:21.996Z,6.38
2023-03-17T04:20:49.368Z,6.26
2023-03-17T04:23:17.337Z,6.25
2023-03-17T04:25:45.028Z,6.17
2023-03-17T04:28:12.317Z,6.09
2023-03-17T04:30:39.593Z,6.10
2023-03-17T04:33:07.271Z,6.06
2023-03-17T04:35:34.813Z,6.08
2023-03-17T04:38:02.768Z,6.08
2023-03-17T04:40:30.428Z,6.08
2023-03-17T04:42:57.861Z,6.01
2023-03-17T04:45:25.763Z,6.04
2023-03-17T04:47:53.054Z,6.12
2023-03-17T04:50:20.645Z,6.05
2023-03-17T04:52:47.946Z,6.09
2023-03-17T04:55:15.639Z,6.09
2023-03-17T04:57:43.697Z,6.03
2023-03-17T05:00:12.856Z,5.94
2023-03-17T05:02:40.246Z,5.87
2023-03-17T05:05:07.667Z,5.91
2023-03-17T05:07:34.986Z,5.88
2023-03-17T05:10:02.337Z,5.90
2023-03-17T05:12:29.668Z,6.03
2023-03-17T05:14:56.977Z,5.97
2023-03-17T05:17:24.320Z,6.02
2023-03-17T05:19:51.652Z,6.18
2023-03-17T05:22:19.772Z,6.09
2023-03-17T05:24:47.621Z,6.03
2023-03-17T05:27:15.025Z,5.95
2023-03-17T05:29:42.403Z,5.97
2023-03-17T05:32:09.838Z,5.96
2023-03-17T05:34:37.194Z,6.09
2023-03-17T05:37:04.455Z,6.09
2023-03-17T05:39:32.013Z,6.03
2023-03-17T05:41:59.253Z,6.20
2023-03-17T05:44:26.574Z,6.12
2023-03-17T05:46:55.223Z,6.18
2023-03-17T05:49:22.547Z,6.25
2023-03-17T05:51:49.903Z,6.39
2023-03-17T05:54:17.317Z,6.54
2023-03-17T05:56:44.574Z,7.00
2023-03-17T05:59:14.912Z,7.81
2023-03-17T06:01:42.584Z,7.89
2023-03-17T06:04:10.159Z,7.73
2023-03-17T06:06:37.429Z,7.90
2023-03-17T06:09:04.768Z,8.38
2023-03-17T06:11:32.195Z,10.17
2023-03-17T06:13:59.510Z,11.65
2023-03-17T06:16:30.499Z,12.70
2023-03-17T06:18:57.873Z,13.57
2023-03-17T06:21:25.678Z,13.59
2023-03-17T06:23:53.017Z,13.73
2023-03-17T06:26:20.703Z,14.44
2023-03-17T06:28:48.041Z,14.59
2023-03-17T06:31:15.655Z,15.31
2023-03-17T06:33:43.818Z,14.76
2023-03-17T06:36:11.179Z,14.52
2023-03-17T06:38:39.341Z,15.32
2023-03-17T06:41:06.889Z,14.44
2023-03-17T06:43:34.314Z,13.24
2023-03-17T06:46:02.103Z,12.93
2023-03-17T06:48:29.526Z,13.10
2023-03-17T06:50:57.162Z,12.80
2023-03-17T06:53:24.592Z,13.27
2023-03-17T06:55:51.983Z,14.49
2023-03-17T06:58:20.743Z,15.16
2023-03-17T07:00:49.011Z,15.78
2023-03-17T07:03:16.945Z,16.64
2023-03-17T07:05:44.590Z,16.56
2023-03-17T07:08:13.194Z,15.78
2023-03-17T07:10:43.400Z,15.20
2023-03-17T07:13:10.749Z,16.16
2023-03-17T07:15:38.758Z,16.99
2023-03-17T07:18:07.029Z,17.39
2023-03-17T07:20:34.499Z,17.24
2023-03-17T07:23:02.490Z,18.15
2023-03-17T07:25:30.158Z,18.15
2023-03-17T07:27:58.546Z,18.00
2023-03-17T07:30:26.861Z,17.45
2023-03-17T07:32:55.287Z,18.19
2023-03-17T07:35:23.345Z,19.58
2023-03-17T07:37:50.747Z,19.97
2023-03-17T07:40:19.003Z,21.01
2023-03-17T07:42:46.742Z,21.32
2023-03-17T07:45:14.124Z,21.90
2023-03-17T07:47:41.912Z,21.97
2023-03-17T07:50:10.826Z,23.16
2023-03-17T07:52:38.255Z,23.13
2023-03-17T07:55:08.560Z,23.92
2023-03-17T07:57:36.766Z,23.89
2023-03-17T08:00:09.010Z,23.52
2023-03-17T08:02:39.879Z,23.58
2023-03-17T08:05:07.909Z,24.24
2023-03-17T08:07:37.452Z,24.23
2023-03-17T08:10:07.506Z,24.27
2023-03-17T08:12:35.855Z,24.90
2023-03-17T08:15:12.053Z,24.39
2023-03-17T08:17:40.663Z,24.84
2023-03-17T08:20:10.629Z,24.51
2023-03-17T08:22:42.428Z,24.79
2023-03-17T08:25:12.685Z,24.72
2023-03-17T08:27:40.669Z,24.61
2023-03-17T08:30:08.646Z,25.85
2023-03-17T08:32:36.629Z,25.06
2023-03-17T08:35:06.340Z,24.89
2023-03-17T08:37:33.697Z,25.11
2023-03-17T08:40:01.330Z,25.32
2023-03-17T08:42:28.625Z,24.69
2023-03-17T08:44:56.012Z,25.23
2023-03-17T08:47:23.680Z,24.93
2023-03-17T08:49:50.986Z,25.64
2023-03-17T08:52:18.398Z,25.01
2023-03-17T08:54:47.252Z,25.53
2023-03-17T08:57:15.806Z,25.62
2023-03-17T08:59:43.257Z,25.46
2023-03-17T09:02:14.502Z,25.32
2023-03-17T09:04:42.578Z,25.99
2023-03-17T09:07:13.151Z,25.37
2023-03-17T09:09:40.837Z,25.60
2023-03-17T09:12:09.343Z,25.88
2023-03-17T09:14:43.521Z,25.10
2023-03-17T09:17:13.905Z,24.70
2023-03-17T09:19:41.878Z,25.79
2023-03-17T09:22:14.145Z,26.06
2023-03-17T09:24:42.036Z,25.44
2023-03-17T09:27:09.430Z,26.58
2023-03-17T09:29:36.914Z,26.66
2023-03-17T09:32:04.359Z,24.94
2023-03-17T09:34:31.751Z,25.06
2023-03-17T09:36:59.787Z,24.92
2023-03-17T09:39:27.550Z,24.31
2023-03-17T09:42:19.925Z,24.31
2023-03-17T09:45:28.081Z,24.28
2023-03-17T09:48:10.924Z,24.33
2023-03-17T09:50:57.613Z,23.65
2023-03-17T09:53:34.629Z,23.51
2023-03-17T09:56:13.692Z,22.44
2023-03-17T09:58:51.274Z,23.60
2023-03-17T10:01:19.455Z,23.22
2023-03-17T10:03:47.736Z,23.77
2023-03-17T10:06:32.237Z,22.87
2023-03-17T10:09:13.885Z,23.74
2023-03-17T10:11:48.671Z,24.84
2023-03-17T10:14:38.389Z,24.24
2023-03-17T10:17:19.675Z,22.91
2023-03-17T10:20:02.249Z,22.86
2023-03-17T10:22:37.284Z,23.53
2023-03-17T10:25:13.748Z,22.90
2023-03-17T10:27:44.898Z,23.49
2023-03-17T10:30:17.194Z,23.77
2023-03-17T10:32:45.920Z,22.95
2023-03-17T10:35:15.211Z,22.67
2023-03-17T10:37:44.147Z,22.90
2023-03-17T10:40:28.681Z,22.84
2023-03-17T10:43:07.707Z,23.24
2023-03-17T10:45:40.940Z,23.16
2023-03-17T10:48:10.674Z,23.32
2023-03-17T10:50:41.084Z,23.29
2023-03-17T10:53:18.390Z,22.88
2023-03-17T10:55:53.426Z,23.39
2023-03-17T10:58:47.530Z,22.41
2023-03-17T11:01:41.557Z,21.84
2023-03-17T11:04:33.929Z,22.48
2023-03-17T11:07:10.885Z,22.03
2023-03-17T11:09:38.364Z,21.49
2023-03-17T11:12:18.606Z,21.76
2023-03-17T11:14:48.328Z,21.45
2023-03-17T11:17:39.295Z,21.49
2023-03-17T11:20:13.190Z,21.30
2023-03-17T11:22:42.977Z,21.49
2023-03-17T11:25:14.797Z,21.26
2023-03-17T11:27:42.310Z,22.44
2023-03-17T11:30:32.977Z,21.69
2023-03-17T11:33:28.301Z,21.33
2023-03-17T11:36:20.119Z,22.23
2023-03-17T11:39:12.622Z,20.41
2023-03-17T11:41:51.039Z,21.03
2023-03-17T11:44:57.966Z,21.26
2023-03-17T11:47:28.427Z,21.17
2023-03-17T11:50:23.461Z,21.26
2023-03-17T11:53:15.728Z,21.52
2023-03-17T11:55:45.374Z,21.36
2023-03-17T11:58:31.830Z,20.97
2023-03-17T12:01:01.769Z,20.58
2023-03-17T12:03:39.072Z,21.13
2023-03-17T12:06:15.418Z,20.52
2023-03-17T12:08:50.458Z,20.32
2023-03-17T12:11:23.524Z,19.21
2023-03-17T12:14:05.902Z,19.60
2023-03-17T12:17:21.631Z,20.33
2023-03-17T12:20:16.480Z,20.04
2023-03-17T12:23:01.922Z,19.88
2023-03-17T12:25:57.626Z,20.21
2023-03-17T12:28:30.236Z,20.03
2023-03-17T12:31:07.281Z,20.23
2023-03-17T12:33:56.916Z,19.86
2023-03-17T12:36:25.150Z,19.77
2023-03-17T12:39:01.961Z,20.24
2023-03-17T12:41:42.984Z,19.05
2023-03-17T12:44:33.198Z,19.38
2023-03-17T12:47:08.829Z,19.04
2023-03-17T12:50:04.623Z,19.16
2023-03-17T12:52:55.870Z,19.24
2023-03-17T12:55:26.890Z,19.44
2023-03-17T12:58:08.111Z,19.25
2023-03-17T13:00:50.674Z,19.86
2023-03-17T13:03:25.898Z,19.73
2023-03-17T13:06:00.564Z,20.38
2023-03-17T13:08:35.675Z,20.23
2023-03-17T13:11:25.393Z,19.88
2023-03-17T13:14:05.884Z,20.17
2023-03-17T13:16:41.202Z,20.06
2023-03-17T13:19:19.085Z,19.94
2023-03-17T13:21:59.902Z,19.48
2023-03-17T13:24:47.398Z,18.56
2023-03-17T13:27:34.871Z,18.60
2023-03-17T13:30:25.883Z,19.36
2023-03-17T13:33:19.773Z,19.13
2023-03-17T13:36:25.525Z,18.63
2023-03-17T13:39:19.715Z,19.07
2023-03-17T13:42:18.139Z,18.87
2023-03-17T13:45:16.573Z,18.91
2023-03-17T13:47:45.981Z,19.27
2023-03-17T13:50:32.792Z,19.62
2023-03-17T13:53:08.700Z,19.89
2023-03-17T13:55:39.835Z,19.58
2023-03-17T13:58:10.939Z,19.66
2023-03-17T14:00:48.960Z,19.84
2023-03-17T14:03:40.195Z,19.33
2023-03-17T14:06:12.012Z,19.33
2023-03-17T14:08:55.674Z,19.19
2023-03-17T14:11:27.444Z,19.40
2023-03-17T14:14:32.098Z,18.87
2023-03-17T14:17:26.001Z,19.23
2023-03-17T14:20:07.024Z,19.01
2023-03-17T14:22:45.152Z,19.04
2023-03-17T14:25:21.217Z,18.64
2023-03-17T14:27:56.167Z,18.42
2023-03-17T14:30:27.289Z,18.60
2023-03-17T14:33:05.735Z,17.83
2023-03-17T14:35:37.595Z,17.77
2023-03-17T14:38:16.234Z,17.41
2023-03-17T14:40:43.722Z,17.76
2023-03-17T14:43:11.655Z,17.93
2023-03-17T14:45:45.441Z,18.04
2023-03-17T14:48:14.825Z,18.16
2023-03-17T14:50:51.798Z,17.96
2023-03-17T14:53:19.773Z,17.72
2023-03-17T14:55:47.495Z,17.83
2023-03-17T14:58:27.337Z,17.85
2023-03-17T15:01:02.097Z,17.58
2023-03-17T15:03:33.007Z,17.51
2023-03-17T15:06:21.388Z,17.66
2023-03-17T15:08:49.077Z,17.43
2023-03-17T15:11:21.318Z,17.37
2023-03-17T15:13:53.155Z,17.28
2023-03-17T15:16:24.931Z,17.24
2023-03-17T15:19:04.548Z,17.11
2023-03-17T15:21:40.532Z,17.18
2023-03-17T15:24:38.868Z,16.93
2023-03-17T15:27:17.685Z,16.87
2023-03-17T15:29:45.832Z,17.04
2023-03-17T15:32:16.140Z,17.15
2023-03-17T15:34:43.489Z,16.94
2023-03-17T15:37:26.521Z,16.83
2023-03-17T15:39:55.933Z,16.73
2023-03-17T15:42:27.762Z,16.62
2023-03-17T15:44:55.491Z,16.51
2023-03-17T15:47:26.481Z,16.51
2023-03-17T15:49:58.259Z,16.46
2023-03-17T15:52:27.626Z,16.54
2023-03-17T15:54:58.179Z,16.70
2023-03-17T15:57:27.121Z,16.46
2023-03-17T15:59:54.445Z,16.18
2023-03-17T16:02:35.535Z,16.13
2023-03-17T16:05:15.748Z,16.07
2023-03-17T16:07:43.100Z,16.08
2023-03-17T16:10:19.215Z,15.82
2023-03-17T16:12:47.417Z,15.81
2023-03-17T16:15:23.906Z,15.82
2023-03-17T16:17:54.095Z,15.76
2023-03-17T16:20:27.744Z,15.68
2023-03-17T16:22:58.901Z,15.65
2023-03-17T16:25:31.437Z,15.58
2023-03-17T16:28:01.849Z,15.45
2023-03-17T16:30:32.073Z,15.47
2023-03-17T16:33:02.435Z,15.33
2023-03-17T16:35:29.950Z,15.39
2023-03-17T16:37:57.479Z,15.32
2023-03-17T16:40:27.788Z,15.13
2023-03-17T16:42:55.405Z,15.21
2023-03-17T16:45:32.855Z,15.08
2023-03-17T16:48:02.648Z,15.03
2023-03-17T16:50:33.029Z,14.89
2023-03-17T16:53:00.640Z,14.98
2023-03-17T16:55:29.168Z,14.95
2023-03-17T16:58:00.754Z,14.93
2023-03-17T17:00:30.259Z,14.81
2023-03-17T17:02:58.351Z,14.71
2023-03-17T17:05:29.039Z,14.67
2023-03-17T17:07:57.651Z,14.45
2023-03-17T17:10:28.667Z,14.46
2023-03-17T17:12:56.336Z,14.35
2023-03-17T17:15:24.552Z,14.33
2023-03-17T17:17:56.181Z,14.24
2023-03-17T17:20:31.768Z,14.23
2023-03-17T17:23:01.018Z,14.09
2023-03-17T17:25:30.100Z,13.99
2023-03-17T17:27:58.449Z,13.93
2023-03-17T17:30:28.337Z,13.95
2023-03-17T17:32:58.045Z,13.85
2023-03-17T17:35:27.066Z,13.73
2023-03-17T17:37:54.778Z,13.71
2023-03-17T17:40:26.976Z,13.65
2023-03-17T17:42:54.715Z,13.75
2023-03-17T17:45:22.497Z,13.59
2023-03-17T17:47:50.685Z,13.52
2023-03-17T17:50:23.360Z,13.41
2023-03-17T17:52:50.731Z,13.38
2023-03-17T17:55:18.586Z,13.40
2023-03-17T17:57:46.156Z,13.38
2023-03-17T18:00:16.429Z,13.35
2023-03-17T18:02:44.565Z,13.41
2023-03-17T18:05:12.749Z,13.36
2023-03-17T18:07:40.820Z,13.40
2023-03-17T18:10:13.208Z,13.40
2023-03-17T18:12:40.601Z,13.36
2023-03-17T18:15:08.774Z,13.34
2023-03-17T18:17:36.136Z,13.26
2023-03-17T18:20:03.731Z,13.28
2023-03-17T18:22:31.137Z,13.38
2023-03-17T18:24:58.461Z,13.32
2023-03-17T18:27:26.103Z,13.28
2023-03-17T18:29:55.585Z,13.20
2023-03-17T18:32:24.773Z,13.19
2023-03-17T18:34:52.202Z,13.15
2023-03-17T18:37:19.594Z,13.03
2023-03-17T18:39:58.631Z,12.97
2023-03-17T18:42:34.821Z,12.93
2023-03-17T18:45:02.314Z,12.89
2023-03-17T18:47:29.609Z,12.87
2023-03-17T18:49:58.110Z,12.89
2023-03-17T18:52:31.407Z,12.79
2023-03-17T18:54:59.309Z,12.71
2023-03-17T18:57:27.609Z,12.73
2023-03-17T18:59:55.759Z,12.65
2023-03-17T19:02:23.151Z,12.57
2023-03-17T19:04:50.858Z,12.50
2023-03-17T19:07:18.333Z,12.48
2023-03-17T19:09:45.683Z,12.59
2023-03-17T19:12:13.541Z,12.34
2023-03-17T19:14:40.991Z,12.28
2023-03-17T19:17:08.838Z,12.25
2023-03-17T19:19:37.001Z,12.25
2023-03-17T19:22:06.285Z,12.24
2023-03-17T19:24:36.097Z,12.16
2023-03-17T19:27:04.376Z,12.12
2023-03-17T19:29:32.762Z,12.18
2023-03-17T19:32:00.212Z,12.17
2023-03-17T19:34:27.907Z,12.17
2023-03-17T19:36:55.645Z,12.02
2023-03-17T19:39:23.379Z,11.87
2023-03-17T19:41:54.910Z,11.77
2023-03-17T19:44:22.439Z,11.62
2023-03-17T19:46:49.946Z,11.54
2023-03-17T19:49:17.783Z,11.42
2023-03-17T19:51:45.275Z,11.27
2023-03-17T19:54:13.239Z,11.14
2023-03-17T19:56:40.806Z,11.08
2023-03-17T19:59:08.952Z,10.85
2023-03-17T20:01:38.059Z,10.87
2023-03-17T20:04:06.984Z,10.79
2023-03-17T20:06:34.673Z,10.78
2023-03-17T20:09:05.746Z,10.79
2023-03-17T20:11:34.128Z,10.83
2023-03-17T20:14:02.789Z,10.67
2023-03-17T20:16:33.498Z,10.63
2023-03-17T20:19:02.391Z,10.59
2023-03-17T20:21:30.121Z,10.58
2023-03-17T20:23:57.810Z,10.56
2023-03-17T20:26:25.581Z,10.52
2023-03-17T20:28:53.818Z,10.56
2023-03-17T20:31:22.521Z,10.61
2023-03-17T20:33:49.875Z,10.59
2023-03-17T20:36:17.289Z,10.67
2023-03-17T20:38:44.562Z,10.65
2023-03-17T20:41:14.793Z,10.67
2023-03-17T20:43:42.303Z,10.67
2023-03-17T20:46:16.517Z,10.47
2023-03-17T20:48:46.568Z,10.41
2023-03-17T20:51:16.830Z,10.54
2023-03-17T20:53:46.276Z,10.60
2023-03-17T20:56:18.828Z,10.56
2023-03-17T20:58:47.076Z,10.57
2023-03-17T21:01:17.218Z,10.55
2023-03-17T21:03:46.201Z,10.51
2023-03-17T21:06:14.209Z,10.52
2023-03-17T21:08:42.391Z,10.56
2023-03-17T21:11:16.119Z,10.52
2023-03-17T21:13:44.281Z,10.47
2023-03-17T21:16:18.111Z,10.47
2023-03-17T21:18:45.577Z,10.40
2023-03-17T21:21:13.207Z,10.34
2023-03-17T21:23:41.643Z,10.36
2023-03-17T21:26:11.914Z,10.35
2023-03-17T21:28:41.461Z,10.30
2023-03-17T21:31:10.727Z,10.26
2023-03-17T21:33:38.510Z,10.24
2023-03-17T21:36:06.625Z,10.24
2023-03-17T21:38:34.257Z,10.33
2023-03-17T21:41:22.376Z,10.28
2023-03-17T21:43:50.468Z,10.32
2023-03-17T21:46:17.948Z,10.19
2023-03-17T21:48:45.514Z,10.07
2023-03-17T21:51:13.065Z,10.09
2023-03-17T21:53:40.386Z,10.23
2023-03-17T21:56:08.705Z,10.12
2023-03-17T21:58:36.384Z,10.04
2023-03-17T22:01:04.191Z,9.93
2023-03-17T22:03:32.324Z,9.90
2023-03-17T22:05:59.794Z,9.78
2023-03-17T22:08:27.220Z,9.75
2023-03-17T22:10:54.805Z,9.79
2023-03-17T22:13:22.195Z,9.65
2023-03-17T22:15:49.748Z,9.68
2023-03-17T22:18:17.931Z,9.55
2023-03-17T22:20:45.552Z,9.60
2023-03-17T22:23:13.158Z,9.46
2023-03-17T22:25:40.537Z,9.47
2023-03-17T22:28:08.613Z,9.44
2023-03-17T22:30:39.383Z,9.40
2023-03-17T22:33:08.138Z,9.34
2023-03-17T22:35:36.568Z,9.27
2023-03-17T22:38:05.335Z,9.23
2023-03-17T22:40:33.375Z,9.29
2023-03-17T22:43:01.109Z,9.27
2023-03-17T22:45:28.797Z,9.15
2023-03-17T22:47:56.258Z,9.14
2023-03-17T22:50:25.019Z,9.08
2023-03-17T22:52:52.617Z,9.13
2023-03-17T22:55:20.125Z,9.17
2023-03-17T22:57:47.524Z,9.13
2023-03-17T23:00:17.201Z,9.02
2023-03-17T23:02:46.446Z,9.20
2023-03-17T23:05:14.620Z,9.14
2023-03-17T23:07:50.447Z,9.17
2023-03-17T23:10:23.086Z,9.08
2023-03-17T23:12:50.899Z,9.21
2023-03-17T23:15:19.760Z,9.16
2023-03-17T23:17:47.494Z,9.09
2023-03-17T23:20:15.851Z,8.90
2023-03-17T23:22:43.479Z,8.85
2023-03-17T23:25:12.560Z,8.82
2023-03-17T23:27:40.844Z,8.79
2023-03-17T23:30:11.234Z,8.74
2023-03-17T23:32:41.723Z,8.63
2023-03-17T23:35:10.840Z,8.66
2023-03-17T23:37:38.400Z,8.66
2023-03-17T23:40:07.050Z,8.66
2023-03-17T23:42:34.392Z,8.64
2023-03-17T23:45:02.953Z,8.64
2023-03-17T23:47:31.175Z,8.48
2023-03-17T23:49:58.543Z,8.52
2023-03-17T23:52:26.254Z,8.59
2023-03-17T23:54:53.641Z,8.68
2023-03-17T23:57:20.973Z,8.70
2023-03-17T23:59:48.320Z,8.60
